Time;durP1;ratioP1;P1;durP2;ratioP2;P2;SDS_P1;SDS_P2;PMS_P1;PMS_P2;Temp;Humidity;BMP_temperature;BMP_pressure;BME280_temperature;BME280_humidity;BME280_pressure;Samples;Min_cycle;Max_cycle;Signal;HPM_P1;HPM_P2
2022/06/29 00:00:07;;;;;;;8.95;3.42;;;15.90;99.90;;;;;;5000623;28;20410;-90
2022/06/29 00:02:34;;;;;;;6.57;3.33;;;15.90;99.90;;;;;;4977934;28;20055;-89
2022/06/29 00:04:59;;;;;;;7.45;3.58;;;15.80;99.90;;;;;;4990977;28;20038;-89
2022/06/29 00:07:25;;;;;;;6.68;3.22;;;15.80;99.90;;;;;;5015284;28;20068;-89
2022/06/29 00:09:51;;;;;;;10.43;3.88;;;15.80;99.90;;;;;;4973849;28;20089;-90
2022/06/29 00:12:16;;;;;;;7.65;3.42;;;15.80;99.90;;;;;;5011160;28;20129;-89
2022/06/29 00:14:42;;;;;;;7.38;3.58;;;15.80;99.90;;;;;;5011154;28;20073;-89
2022/06/29 00:17:12;;;;;;;8.27;3.92;;;15.70;99.90;;;;;;4987633;28;20046;-91
2022/06/29 00:19:39;;;;;;;6.63;3.50;;;15.70;99.90;;;;;;4973348;28;20457;-89
2022/06/29 00:22:05;;;;;;;6.93;3.42;;;15.70;99.90;;;;;;4988081;28;20383;-88
2022/06/29 00:24:31;;;;;;;7.78;4.18;;;15.70;99.90;;;;;;4988779;28;20046;-89
2022/06/29 00:26:58;;;;;;;6.78;3.55;;;15.70;99.90;;;;;;5010615;28;20073;-89
2022/06/29 00:29:24;;;;;;;6.38;3.65;;;15.60;99.90;;;;;;5010968;28;20092;-89
2022/06/29 00:31:49;;;;;;;9.93;4.00;;;15.50;99.90;;;;;;5009011;28;20050;-89
2022/06/29 00:34:15;;;;;;;8.57;4.18;;;15.50;99.90;;;;;;4997060;28;20083;-90
2022/06/29 00:36:41;;;;;;;7.88;3.83;;;15.50;99.90;;;;;;5005166;28;20041;-90
2022/06/29 00:39:07;;;;;;;7.07;4.15;;;15.50;99.90;;;;;;5010439;28;20088;-88
2022/06/29 00:41:38;;;;;;;7.32;3.97;;;15.50;99.90;;;;;;5003324;28;20057;-88
2022/06/29 00:44:04;;;;;;;7.47;4.20;;;15.40;99.90;;;;;;5025213;28;20049;-90
2022/06/29 00:46:29;;;;;;;6.65;3.97;;;15.40;99.90;;;;;;5018804;28;20423;-88
2022/06/29 00:48:55;;;;;;;7.95;4.22;;;15.30;99.90;;;;;;5012868;28;20042;-90
2022/06/29 00:51:21;;;;;;;6.45;3.83;;;15.40;99.90;;;;;;5009017;28;20098;-91
2022/06/29 00:53:50;;;;;;;8.45;4.13;;;15.30;99.90;;;;;;5007622;28;20057;-89
2022/06/29 00:56:19;;;;;;;7.32;4.15;;;15.30;99.90;;;;;;5003987;28;20437;-89
2022/06/29 00:58:46;;;;;;;8.68;4.35;;;15.30;99.90;;;;;;4989765;28;20103;-88
2022/06/29 01:01:13;;;;;;;6.90;4.32;;;15.20;99.90;;;;;;5011863;28;20399;-87
2022/06/29 01:03:39;;;;;;;8.15;4.82;;;15.30;99.90;;;;;;5012468;28;20052;-88
2022/06/29 01:06:05;;;;;;;6.68;4.20;;;15.20;99.90;;;;;;5007316;28;20430;-89
2022/06/29 01:08:32;;;;;;;8.38;4.43;;;15.20;99.90;;;;;;5012238;28;20045;-89
2022/06/29 01:10:57;;;;;;;7.90;4.43;;;15.20;99.90;;;;;;5042903;28;20057;-88
2022/06/29 01:13:23;;;;;;;7.75;4.70;;;15.10;99.90;;;;;;5014716;28;20053;-89
2022/06/29 01:15:49;;;;;;;7.40;4.80;;;15.10;99.90;;;;;;5007166;28;20442;-90
2022/06/29 01:18:15;;;;;;;8.80;4.93;;;15.10;99.90;;;;;;4987370;28;20049;-90
2022/06/29 01:20:40;;;;;;;7.88;5.28;;;15.10;99.90;;;;;;5000641;28;20049;-89
2022/06/29 01:23:06;;;;;;;6.90;4.38;;;15.00;99.90;;;;;;5008664;28;20376;-89
2022/06/29 01:25:31;;;;;;;7.57;4.68;;;15.00;99.90;;;;;;5012804;28;20052;-89
2022/06/29 01:27:58;;;;;;;7.90;4.82;;;15.00;99.90;;;;;;5005836;28;20042;-88
2022/06/29 01:30:24;;;;;;;8.80;4.57;;;15.00;99.90;;;;;;5013737;28;20049;-89
2022/06/29 01:32:50;;;;;;;8.38;5.15;;;15.00;99.90;;;;;;5004991;28;20521;-88
2022/06/29 01:35:16;;;;;;;8.68;4.47;;;15.00;99.90;;;;;;4973088;28;20176;-90
2022/06/29 01:37:42;;;;;;;8.10;5.15;;;15.00;99.90;;;;;;5003490;28;20049;-88
2022/06/29 01:40:10;;;;;;;8.73;4.68;;;15.00;99.90;;;;;;4997740;28;20132;-88
2022/06/29 01:42:36;;;;;;;8.38;4.90;;;15.00;99.90;;;;;;5015804;28;20147;-89
2022/06/29 01:45:02;;;;;;;7.15;4.75;;;14.90;99.90;;;;;;4986405;28;20042;-90
2022/06/29 01:47:28;;;;;;;6.95;5.00;;;14.90;99.90;;;;;;4990348;28;20045;-90
2022/06/29 01:49:54;;;;;;;8.82;5.15;;;14.90;99.90;;;;;;4999103;28;20605;-89
2022/06/29 01:52:19;;;;;;;9.27;5.13;;;14.90;99.90;;;;;;4976392;28;20113;-89
2022/06/29 01:54:45;;;;;;;9.75;5.25;;;14.90;99.90;;;;;;4999451;28;20072;-89
2022/06/29 01:57:11;;;;;;;8.25;5.13;;;14.90;99.90;;;;;;4990275;28;20418;-89
2022/06/29 01:59:36;;;;;;;8.65;5.20;;;14.80;99.90;;;;;;4993990;28;20045;-90
2022/06/29 02:02:02;;;;;;;8.98;5.20;;;14.90;99.90;;;;;;5009469;28;20119;-89
2022/06/29 02:04:27;;;;;;;7.82;5.07;;;14.90;99.90;;;;;;4998150;28;20069;-89
2022/06/29 02:06:53;;;;;;;8.77;5.10;;;14.90;99.90;;;;;;5013387;28;20040;-90
2022/06/29 02:09:19;;;;;;;9.27;4.82;;;14.90;99.90;;;;;;5001086;28;20034;-91
2022/06/29 02:11:44;;;;;;;7.70;5.20;;;14.90;99.90;;;;;;4994491;28;20038;-90
2022/06/29 02:14:10;;;;;;;8.77;5.00;;;14.90;99.90;;;;;;5013991;28;20046;-88
2022/06/29 02:16:36;;;;;;;8.48;5.40;;;14.90;99.90;;;;;;5008909;28;20516;-87
2022/06/29 02:19:02;;;;;;;7.60;5.15;;;14.90;99.90;;;;;;5017017;28;20038;-88
2022/06/29 02:21:28;;;;;;;9.93;5.70;;;14.90;99.90;;;;;;5008749;28;20601;-89
2022/06/29 02:23:54;;;;;;;9.25;5.75;;;14.80;99.90;;;;;;5013670;28;20117;-89
2022/06/29 02:26:19;;;;;;;9.45;5.40;;;14.80;99.90;;;;;;5012842;28;20043;-89
2022/06/29 02:28:45;;;;;;;10.18;5.65;;;14.80;99.90;;;;;;5005071;28;20052;-89
2022/06/29 02:36:39;;;;;;;9.15;5.85;;;14.90;99.90;;;;;;5012930;28;20136;-88
2022/06/29 02:39:05;;;;;;;8.85;5.50;;;14.80;99.90;;;;;;5015263;28;21001;-88
2022/06/29 02:41:30;;;;;;;8.75;6.03;;;14.90;99.90;;;;;;5006938;28;20045;-88
2022/06/29 02:43:56;;;;;;;8.38;5.68;;;14.90;99.90;;;;;;5005926;28;20494;-88
2022/06/29 02:46:22;;;;;;;9.35;5.70;;;14.90;99.90;;;;;;5009056;28;20042;-88
2022/06/29 02:48:47;;;;;;;8.80;5.82;;;14.90;99.90;;;;;;4986784;28;20046;-88
2022/06/29 02:51:13;;;;;;;10.18;6.05;;;14.90;99.90;;;;;;4988570;28;20057;-88
2022/06/29 02:53:38;;;;;;;9.10;5.95;;;14.90;99.90;;;;;;5007359;28;20041;-89
2022/06/29 02:56:04;;;;;;;7.70;5.70;;;15.00;99.90;;;;;;5008140;28;20870;-88
2022/06/29 02:58:30;;;;;;;9.25;6.20;;;15.00;99.90;;;;;;4987815;28;20045;-88
2022/06/29 03:00:55;;;;;;;8.27;6.00;;;15.00;99.90;;;;;;4988160;28;20038;-88
2022/06/29 03:03:21;;;;;;;9.63;6.13;;;15.00;99.90;;;;;;4992132;28;20057;-89
2022/06/29 03:05:46;;;;;;;10.18;6.65;;;15.00;99.90;;;;;;5006272;28;20406;-88
2022/06/29 03:08:12;;;;;;;10.38;6.72;;;15.00;99.90;;;;;;4987655;28;20035;-88
2022/06/29 03:10:38;;;;;;;9.63;6.43;;;14.90;99.90;;;;;;5005733;28;20065;-89
2022/06/29 03:13:03;;;;;;;8.65;6.40;;;14.90;99.90;;;;;;4988256;28;20980;-88
2022/06/29 03:15:29;;;;;;;10.32;6.50;;;15.00;99.90;;;;;;4990162;28;20042;-87
2022/06/29 03:17:55;;;;;;;8.63;6.22;;;14.90;99.90;;;;;;5004145;28;20053;-89
2022/06/29 03:20:22;;;;;;;9.98;6.72;;;14.90;99.90;;;;;;4989574;28;20049;-88
2022/06/29 03:22:48;;;;;;;8.73;6.55;;;14.90;99.90;;;;;;5009083;28;20041;-89
2022/06/29 03:25:14;;;;;;;9.90;6.50;;;14.90;99.90;;;;;;5006768;28;20065;-88
2022/06/29 03:27:40;;;;;;;12.90;6.70;;;14.90;99.90;;;;;;5018741;28;20438;-89
2022/06/29 03:30:07;;;;;;;10.10;6.40;;;14.90;99.90;;;;;;4972529;28;20123;-89
2022/06/29 03:32:32;;;;;;;8.73;6.43;;;14.90;99.90;;;;;;4997749;28;20095;-88
2022/06/29 03:34:58;;;;;;;9.85;6.50;;;14.90;99.90;;;;;;5020644;28;21254;-89
2022/06/29 03:37:24;;;;;;;9.93;7.10;;;14.80;99.90;;;;;;5006864;28;20402;-90
2022/06/29 03:39:49;;;;;;;8.38;6.47;;;14.80;99.90;;;;;;5004690;28;20050;-89
2022/06/29 03:42:15;;;;;;;9.45;7.13;;;14.80;99.90;;;;;;5005278;28;20057;-88
2022/06/29 03:44:41;;;;;;;9.18;6.50;;;14.80;99.90;;;;;;5021257;28;20045;-88
2022/06/29 03:47:07;;;;;;;10.10;6.97;;;14.80;99.90;;;;;;5011439;28;20151;-89
2022/06/29 03:49:35;;;;;;;9.02;6.53;;;14.70;99.90;;;;;;5014424;28;20120;-90
2022/06/29 03:52:01;;;;;;;9.93;7.20;;;14.70;99.90;;;;;;5004946;28;20553;-90
2022/06/29 03:54:27;;;;;;;10.70;7.20;;;14.70;99.90;;;;;;5014599;28;20038;-88
2022/06/29 03:56:53;;;;;;;9.75;7.18;;;14.70;99.90;;;;;;5011746;28;20469;-89
2022/06/29 03:59:18;;;;;;;9.23;6.75;;;14.70;99.90;;;;;;5008409;28;20049;-88
2022/06/29 04:01:46;;;;;;;10.23;7.40;;;14.80;99.90;;;;;;5005144;28;20050;-88
2022/06/29 04:04:12;;;;;;;8.93;6.97;;;14.80;99.90;;;;;;5004570;28;20092;-89
2022/06/29 04:06:38;;;;;;;10.02;6.93;;;14.90;99.90;;;;;;5010966;28;20132;-88
2022/06/29 04:09:04;;;;;;;9.13;6.80;;;14.90;99.90;;;;;;5004938;28;20037;-88
2022/06/29 04:14:15;;;;;;;8.27;6.30;;;15.00;99.90;;;;;;5009090;28;20045;-88
2022/06/29 04:16:40;;;;;;;9.80;6.47;;;15.00;99.90;;;;;;5002038;28;20042;-89
2022/06/29 04:19:06;;;;;;;8.35;6.47;;;15.10;99.90;;;;;;5004766;28;20117;-89
2022/06/29 04:21:31;;;;;;;8.00;6.55;;;15.10;99.90;;;;;;5011128;28;20387;-88
2022/06/29 04:23:57;;;;;;;9.43;6.68;;;15.20;99.90;;;;;;4988790;28;20049;-89
2022/06/29 04:26:23;;;;;;;9.45;7.03;;;15.20;99.90;;;;;;5019757;28;20519;-89
2022/06/29 04:28:48;;;;;;;8.38;6.00;;;15.30;99.90;;;;;;5013750;28;20042;-89
2022/06/29 04:31:14;;;;;;;8.57;6.70;;;15.30;99.90;;;;;;5002315;28;20046;-90
2022/06/29 04:33:39;;;;;;;9.50;7.07;;;15.40;99.90;;;;;;5011668;28;20050;-90
2022/06/29 04:36:05;;;;;;;9.35;6.72;;;15.40;99.90;;;;;;5007157;28;20383;-90
2022/06/29 04:38:31;;;;;;;9.40;6.82;;;15.50;99.90;;;;;;5006868;28;20049;-88
2022/06/29 04:40:59;;;;;;;8.45;6.63;;;15.50;99.90;;;;;;5006638;28;20457;-90
2022/06/29 04:43:27;;;;;;;8.65;6.85;;;15.50;99.90;;;;;;5008390;28;20045;-89
2022/06/29 04:48:37;;;;;;;9.45;6.97;;;15.70;99.90;;;;;;5002934;28;20039;-89
2022/06/29 04:51:03;;;;;;;10.50;7.22;;;15.80;99.90;;;;;;5034501;28;20056;-89
2022/06/29 04:53:28;;;;;;;8.85;6.90;;;15.80;99.90;;;;;;5010919;28;20056;-90
2022/06/29 04:55:55;;;;;;;9.57;7.20;;;15.90;99.90;;;;;;5009130;28;20041;-90
2022/06/29 04:58:20;;;;;;;8.55;6.80;;;15.90;99.90;;;;;;5006897;28;20605;-93
2022/06/29 05:00:46;;;;;;;9.43;6.57;;;16.00;99.90;;;;;;4998992;28;20060;-91
2022/06/29 05:03:12;;;;;;;10.25;7.55;;;16.10;99.90;;;;;;5017261;28;20049;-90
2022/06/29 05:05:37;;;;;;;9.35;7.47;;;16.20;99.90;;;;;;5013155;28;20048;-90
2022/06/29 05:08:03;;;;;;;9.00;7.50;;;16.20;99.90;;;;;;5015881;28;20137;-91
2022/06/29 05:10:30;;;;;;;8.75;6.75;;;16.30;99.90;;;;;;5000540;28;20034;-90
2022/06/29 05:12:56;;;;;;;9.70;6.75;;;16.40;99.90;;;;;;5014667;28;20120;-88
2022/06/29 05:15:22;;;;;;;8.05;6.22;;;16.50;99.90;;;;;;5001758;28;20395;-90
2022/06/29 05:17:48;;;;;;;9.18;6.93;;;16.60;99.90;;;;;;5027532;28;20042;-89
2022/06/29 05:20:14;;;;;;;9.32;7.25;;;16.60;99.90;;;;;;5018913;28;20092;-93
2022/06/29 05:22:40;;;;;;;8.43;7.20;;;16.80;99.90;;;;;;4991085;28;20077;-92
2022/06/29 05:25:06;;;;;;;9.25;6.95;;;16.80;99.90;;;;;;4991461;28;20080;-91
2022/06/29 05:27:32;;;;;;;7.90;6.90;;;16.90;99.90;;;;;;5011278;28;20509;-91
2022/06/29 05:29:58;;;;;;;9.60;6.28;;;17.00;99.90;;;;;;5008524;28;20091;-95
2022/06/29 05:32:24;;;;;;;8.48;6.30;;;17.00;99.90;;;;;;4993826;28;20042;-91
2022/06/29 05:34:50;;;;;;;8.65;6.82;;;17.10;99.90;;;;;;5009794;28;20137;-89
2022/06/29 05:37:15;;;;;;;8.32;7.05;;;17.20;99.90;;;;;;4984042;28;20042;-90
2022/06/29 05:39:42;;;;;;;7.35;5.88;;;17.30;99.90;;;;;;5012397;28;20108;-89
2022/06/29 05:42:08;;;;;;;9.77;6.25;;;17.40;99.90;;;;;;4986135;28;20060;-95
2022/06/29 05:44:33;;;;;;;8.50;6.45;;;17.50;99.90;;;;;;5018208;28;20038;-93
2022/06/29 05:47:03;;;;;;;8.82;6.45;;;17.50;99.90;;;;;;5010255;28;20045;-93
2022/06/29 05:49:29;;;;;;;8.25;6.43;;;17.60;99.90;;;;;;5024542;28;20037;-93
2022/06/29 05:51:55;;;;;;;7.80;6.07;;;17.60;99.90;;;;;;4993791;28;20042;-93
2022/06/29 05:54:20;;;;;;;8.27;5.78;;;17.70;99.90;;;;;;5001504;28;20529;-92
2022/06/29 05:56:49;;;;;;;8.68;5.82;;;17.70;99.90;;;;;;4983942;28;20049;-93
2022/06/29 05:59:15;;;;;;;8.55;6.32;;;17.80;99.90;;;;;;4981718;28;20038;-95
2022/06/29 06:01:41;;;;;;;8.57;6.05;;;17.80;99.90;;;;;;5017606;28;20192;-93
2022/06/29 06:04:06;;;;;;;7.93;5.82;;;17.90;99.90;;;;;;5025861;28;20049;-95
2022/06/29 06:06:32;;;;;;;8.60;6.10;;;18.00;99.90;;;;;;4986586;28;20045;-96
2022/06/29 06:08:58;;;;;;;8.73;5.78;;;18.10;99.90;;;;;;5012407;28;20052;-93
2022/06/29 06:11:24;;;;;;;7.57;5.45;;;18.20;99.90;;;;;;4990521;28;20054;-93
2022/06/29 06:13:49;;;;;;;7.55;5.68;;;18.30;99.90;;;;;;4988894;28;20517;-95
2022/06/29 06:16:15;;;;;;;8.77;5.50;;;18.40;99.90;;;;;;4994500;28;20038;-95
2022/06/29 06:18:41;;;;;;;9.15;5.13;;;18.50;99.90;;;;;;5002276;28;20042;-90
2022/06/29 06:21:06;;;;;;;8.63;5.60;;;18.60;99.90;;;;;;4997252;28;20045;-91
2022/06/29 06:23:32;;;;;;;7.75;5.00;;;18.70;99.90;;;;;;5005000;28;20399;-90
2022/06/29 06:25:58;;;;;;;7.72;4.85;;;18.70;99.90;;;;;;4970693;28;20119;-91
2022/06/29 06:28:24;;;;;;;7.88;4.70;;;18.80;99.90;;;;;;4988220;28;20050;-90
2022/06/29 06:30:49;;;;;;;7.45;4.95;;;18.90;99.90;;;;;;4987510;28;20044;-91
2022/06/29 06:33:15;;;;;;;7.15;4.40;;;19.10;99.90;;;;;;4987575;28;20054;-90
2022/06/29 06:35:41;;;;;;;7.60;4.70;;;19.20;99.90;;;;;;5008529;28;20499;-95
2022/06/29 06:38:06;;;;;;;7.45;4.40;;;19.20;99.90;;;;;;5013613;28;20437;-93
2022/06/29 06:43:16;;;;;;;7.43;4.53;;;19.40;99.90;;;;;;5014789;28;20186;-94
2022/06/29 06:45:42;;;;;;;8.00;4.40;;;19.50;99.90;;;;;;4996096;28;20057;-94
2022/06/29 06:48:08;;;;;;;7.15;4.10;;;19.50;99.90;;;;;;5013220;28;20385;-93
2022/06/29 06:50:34;;;;;;;8.43;4.70;;;19.50;99.90;;;;;;5024786;28;20046;-94
2022/06/29 06:53:01;;;;;;;6.63;3.75;;;19.70;99.90;;;;;;5017428;28;20045;-91
2022/06/29 06:55:27;;;;;;;6.97;3.45;;;19.80;99.90;;;;;;5017016;28;20041;-92
2022/06/29 06:57:53;;;;;;;6.65;3.67;;;19.80;99.90;;;;;;4990034;28;20057;-91
2022/06/29 07:00:19;;;;;;;5.75;3.17;;;19.90;99.90;;;;;;5010695;28;20027;-90
2022/06/29 07:02:44;;;;;;;8.18;2.97;;;20.00;99.90;;;;;;4990612;28;20038;-96
2022/06/29 07:05:10;;;;;;;5.60;3.17;;;20.10;99.90;;;;;;5009046;28;20064;-91
2022/06/29 07:07:35;;;;;;;7.32;3.47;;;20.20;99.90;;;;;;5012840;28;20458;-94
2022/06/29 07:10:01;;;;;;;7.53;3.53;;;20.30;99.90;;;;;;5022641;28;20509;-95
2022/06/29 07:12:27;;;;;;;5.55;3.03;;;20.30;99.90;;;;;;5009632;28;20045;-92
2022/06/29 07:14:52;;;;;;;8.82;3.67;;;20.50;99.90;;;;;;5008025;28;20034;-88
2022/06/29 07:17:18;;;;;;;5.90;3.20;;;20.50;99.90;;;;;;5004191;28;20053;-93
2022/06/29 07:19:46;;;;;;;5.00;2.80;;;20.60;99.90;;;;;;5012008;28;20153;-94
2022/06/29 07:22:12;;;;;;;5.35;3.10;;;20.70;99.90;;;;;;5009969;28;20136;-95
2022/06/29 07:24:37;;;;;;;5.18;2.95;;;20.70;99.90;;;;;;5025152;28;20045;-93
2022/06/29 07:27:03;;;;;;;7.05;3.38;;;20.80;99.90;;;;;;5010820;28;20045;-90
2022/06/29 07:29:29;;;;;;;5.75;3.15;;;20.90;99.90;;;;;;5009226;28;20054;-92
2022/06/29 07:31:55;;;;;;;6.47;3.05;;;20.90;99.90;;;;;;5018898;28;20038;-94
2022/06/29 07:34:20;;;;;;;6.20;2.92;;;21.00;99.90;;;;;;4995544;28;20045;-94
2022/06/29 07:36:46;;;;;;;7.22;2.95;;;21.10;99.90;;;;;;5006734;28;20120;-94
2022/06/29 07:39:11;;;;;;;5.45;2.67;;;21.20;99.90;;;;;;4997712;28;20440;-91
2022/06/29 07:41:37;;;;;;;6.05;2.60;;;21.30;99.90;;;;;;5009597;28;20057;-93
2022/06/29 07:44:04;;;;;;;5.55;2.75;;;21.30;99.90;;;;;;5007124;28;20110;-92
2022/06/29 07:46:30;;;;;;;5.85;2.80;;;21.30;99.90;;;;;;5004856;28;20133;-90
2022/06/29 07:48:55;;;;;;;6.03;2.80;;;21.30;99.90;;;;;;5006399;28;20129;-94
2022/06/29 07:51:21;;;;;;;6.28;3.00;;;21.40;99.90;;;;;;5004515;28;20087;-94
2022/06/29 07:53:47;;;;;;;4.95;2.85;;;21.50;99.90;;;;;;5012944;28;20461;-93
2022/06/29 07:56:12;;;;;;;5.60;2.78;;;21.50;99.90;;;;;;5006645;28;20037;-92
2022/06/29 07:58:38;;;;;;;7.53;2.90;;;21.60;99.90;;;;;;5006641;28;20124;-93
2022/06/29 08:01:04;;;;;;;6.55;3.22;;;21.70;99.90;;;;;;5004480;28;20034;-90
2022/06/29 08:03:31;;;;;;;6.50;2.85;;;21.70;99.90;;;;;;5009236;28;20058;-90
2022/06/29 08:05:57;;;;;;;5.10;2.70;;;21.80;99.90;;;;;;5011797;28;20119;-92
2022/06/29 08:08:23;;;;;;;5.82;2.90;;;21.90;99.90;;;;;;5007965;28;20054;-91
2022/06/29 08:10:49;;;;;;;5.18;2.65;;;22.10;99.90;;;;;;5005461;28;20053;-92
2022/06/29 08:13:15;;;;;;;6.45;3.00;;;22.20;99.90;;;;;;5008091;28;20482;-91
2022/06/29 08:15:42;;;;;;;5.03;2.75;;;22.30;99.90;;;;;;5001755;28;20042;-89
2022/06/29 08:18:07;;;;;;;7.03;2.63;;;22.50;99.90;;;;;;5014601;28;20054;-90
2022/06/29 08:20:33;;;;;;;6.13;3.10;;;22.50;99.90;;;;;;5002873;28;20103;-90
2022/06/29 08:22:59;;;;;;;5.75;2.38;;;22.60;99.90;;;;;;5015265;28;20046;-90
2022/06/29 08:25:25;;;;;;;5.97;2.67;;;22.70;99.90;;;;;;5001370;28;20616;-89
2022/06/29 08:27:54;;;;;;;6.68;2.40;;;22.80;99.90;;;;;;5010476;28;20050;-90
2022/06/29 08:30:21;;;;;;;4.25;2.10;;;23.00;99.90;;;;;;5004865;28;20052;-90
2022/06/29 08:32:47;;;;;;;4.60;2.28;;;23.00;99.90;;;;;;4986788;28;20037;-90
2022/06/29 08:35:14;;;;;;;5.50;2.08;;;23.10;99.90;;;;;;5009086;28;20054;-90
2022/06/29 08:37:40;;;;;;;5.47;2.40;;;23.20;99.90;;;;;;4975045;28;20049;-90
2022/06/29 08:40:14;;;;;;;5.47;2.40;;;23.20;99.90;;;;;;4992140;28;20122;-90
2022/06/29 08:42:40;;;;;;;4.70;2.20;;;23.10;99.90;;;;;;5004922;28;20205;-90
2022/06/29 08:45:08;;;;;;;5.07;2.22;;;23.10;99.90;;;;;;4989670;28;20038;-91
2022/06/29 08:47:33;;;;;;;4.68;2.35;;;23.10;99.90;;;;;;4985300;28;20053;-88
2022/06/29 08:50:02;;;;;;;5.47;2.50;;;23.10;99.90;;;;;;5000894;28;20395;-91
2022/06/29 08:52:28;;;;;;;4.72;2.42;;;23.10;99.90;;;;;;5002463;28;20058;-90
2022/06/29 08:54:54;;;;;;;7.70;2.17;;;23.20;99.90;;;;;;4998805;28;20091;-95
2022/06/29 08:57:22;;;;;;;5.40;2.30;;;23.30;99.90;;;;;;5000085;28;20076;-94
2022/06/29 08:59:51;;;;;;;5.35;2.38;;;23.30;99.90;;;;;;4996051;28;20037;-95
2022/06/29 09:02:16;;;;;;;5.07;2.30;;;23.50;99.90;;;;;;4995290;28;20139;-91
2022/06/29 09:04:42;;;;;;;5.38;2.20;;;23.60;99.90;;;;;;4982647;28;20581;-92
2022/06/29 09:07:08;;;;;;;4.13;2.38;;;23.80;99.90;;;;;;4999056;28;20046;-95
2022/06/29 09:10:02;;;;;;;6.75;2.10;;;24.00;99.90;;;;;;5027417;28;20041;-94
2022/06/29 09:12:30;;;;;;;4.78;2.40;;;24.10;99.90;;;;;;4997287;28;20396;-91
2022/06/29 09:14:55;;;;;;;3.92;2.22;;;24.30;99.90;;;;;;4995603;28;20065;-89
2022/06/29 09:17:21;;;;;;;5.60;2.35;;;24.30;99.90;;;;;;5006183;28;20026;-94
2022/06/29 09:19:48;;;;;;;5.72;2.60;;;24.40;99.90;;;;;;5014300;28;20068;-91
2022/06/29 09:22:14;;;;;;;4.18;2.22;;;24.30;99.90;;;;;;5003574;28;20038;-91
2022/06/29 09:24:41;;;;;;;4.40;2.38;;;24.30;99.90;;;;;;4988682;28;20125;-88
2022/06/29 09:27:09;;;;;;;5.60;2.20;;;24.30;99.90;;;;;;5017894;28;20735;-88
2022/06/29 09:29:39;;;;;;;5.00;2.45;;;24.30;99.90;;;;;;4997453;28;20196;-86
2022/06/29 09:32:05;;;;;;;5.25;2.28;;;24.30;99.90;;;;;;5002771;28;20050;-88
2022/06/29 09:34:41;;;;;;;4.88;2.40;;;24.30;99.90;;;;;;5006036;28;20061;-89
2022/06/29 09:37:27;;;;;;;4.15;2.10;;;24.20;99.90;;;;;;4976027;28;20371;-89
2022/06/29 09:39:54;;;;;;;6.97;2.50;;;24.10;99.90;;;;;;4996228;28;20497;-88
2022/06/29 09:42:26;;;;;;;5.15;2.40;;;24.00;99.90;;;;;;4990211;28;20050;-89
2022/06/29 09:44:52;;;;;;;5.30;2.40;;;24.20;99.90;;;;;;4991473;28;20412;-87
2022/06/29 09:47:20;;;;;;;5.65;2.70;;;24.20;99.90;;;;;;5013405;28;20092;-88
2022/06/29 09:49:48;;;;;;;4.88;2.33;;;24.10;99.90;;;;;;4988520;28;20045;-87
2022/06/29 09:52:14;;;;;;;4.57;2.22;;;24.10;99.90;;;;;;5008793;28;20100;-87
2022/06/29 09:54:54;;;;;;;4.63;2.30;;;24.10;99.90;;;;;;5026046;28;20112;-88
2022/06/29 09:57:23;;;;;;;6.05;2.40;;;24.30;99.90;;;;;;5013294;28;20046;-90
2022/06/29 10:02:48;;;;;;;5.60;2.50;;;24.30;99.90;;;;;;4989415;28;20057;-88
2022/06/29 10:05:14;;;;;;;5.65;2.30;;;24.20;99.90;;;;;;4986600;28;20042;-88
2022/06/29 10:07:42;;;;;;;5.00;2.40;;;24.20;99.90;;;;;;5008439;28;20479;-89
2022/06/29 10:10:11;;;;;;;4.82;2.60;;;24.20;99.90;;;;;;5002027;28;20125;-89
2022/06/29 10:16:00;;;;;;;5.68;2.70;;;24.20;99.90;;;;;;5006121;28;20053;-89
2022/06/29 10:18:42;;;;;;;5.75;2.50;;;24.30;99.90;;;;;;4974843;28;20465;-90
2022/06/29 10:21:18;;;;;;;4.55;2.28;;;24.40;99.90;;;;;;4987984;28;20132;-89
2022/06/29 10:23:48;;;;;;;5.38;2.50;;;24.50;99.90;;;;;;4998917;28;20364;-89
2022/06/29 10:26:32;;;;;;;5.78;2.33;;;24.70;99.90;;;;;;4996368;28;20048;-89
2022/06/29 10:29:10;;;;;;;5.75;2.78;;;24.80;99.90;;;;;;4982822;28;20081;-92
2022/06/29 10:31:54;;;;;;;5.15;2.53;;;24.90;99.90;;;;;;4994298;28;20071;-94
2022/06/29 10:34:32;;;;;;;6.05;2.60;;;24.90;99.90;;;;;;5005583;28;20137;-91
2022/06/29 10:37:01;;;;;;;4.25;2.60;;;25.10;99.90;;;;;;5012581;28;20046;-92
2022/06/29 10:39:27;;;;;;;5.88;2.78;;;25.10;99.90;;;;;;5004245;28;20050;-93
2022/06/29 10:44:59;;;;;;;6.72;3.20;;;25.30;99.90;;;;;;5031971;28;20501;-91
2022/06/29 10:47:25;;;;;;;7.13;3.13;;;25.30;99.90;;;;;;5008660;28;20132;-92
2022/06/29 10:50:17;;;;;;;5.22;2.90;;;25.30;99.90;;;;;;5012295;28;20634;-92
2022/06/29 10:52:44;;;;;;;5.47;3.00;;;25.30;99.90;;;;;;5006321;28;20077;-90
2022/06/29 10:55:11;;;;;;;6.05;3.15;;;25.20;99.90;;;;;;5025886;28;20599;-91
2022/06/29 10:57:42;;;;;;;6.07;3.10;;;25.20;99.90;;;;;;5029718;28;20434;-93
2022/06/29 11:00:14;;;;;;;6.15;2.95;;;25.20;99.90;;;;;;5017225;28;20643;-92
2022/06/29 11:02:41;;;;;;;5.28;2.72;;;25.20;99.90;;;;;;5022960;28;20474;-92
2022/06/29 11:05:08;;;;;;;4.97;2.80;;;25.20;99.90;;;;;;5001142;28;20458;-89
2022/06/29 11:13:03;;;;;;;6.47;3.20;;;25.40;99.90;;;;;;5021450;28;20359;-90
2022/06/29 11:15:39;;;;;;;5.85;3.10;;;25.50;99.90;;;;;;5007985;28;20045;-92
2022/06/29 11:18:12;;;;;;;5.35;3.20;;;25.60;99.90;;;;;;5005143;28;20062;-89
2022/06/29 11:20:38;;;;;;;6.30;3.13;;;25.50;99.90;;;;;;5010094;28;20046;-89
2022/06/29 11:23:10;;;;;;;5.63;3.20;;;25.60;99.90;;;;;;5006497;28;20085;-90
2022/06/29 11:25:37;;;;;;;8.07;3.42;;;25.60;99.90;;;;;;5007309;28;20119;-90
2022/06/29 11:28:04;;;;;;;8.15;3.50;;;25.60;99.90;;;;;;5003190;28;20056;-92
2022/06/29 11:30:30;;;;;;;6.00;3.30;;;25.60;99.90;;;;;;5015744;28;20041;-92
2022/06/29 11:32:56;;;;;;;6.95;3.90;;;25.70;99.90;;;;;;5011826;28;20052;-91
2022/06/29 11:35:25;;;;;;;7.05;3.60;;;25.70;99.90;;;;;;5010124;28;20375;-90
2022/06/29 11:37:53;;;;;;;5.57;3.40;;;25.80;99.90;;;;;;5003928;28;20916;-91
2022/06/29 11:40:43;;;;;;;5.13;3.03;;;25.90;99.90;;;;;;5003010;28;20059;-92
2022/06/29 11:43:10;;;;;;;5.45;3.30;;;25.90;99.90;;;;;;4991694;28;20383;-92
2022/06/29 11:45:56;;;;;;;6.97;3.90;;;26.00;99.90;;;;;;4982013;28;20117;-90
2022/06/29 11:48:27;;;;;;;6.68;3.70;;;26.10;99.90;;;;;;5012313;28;20388;-91
2022/06/29 11:50:54;;;;;;;6.63;4.10;;;26.10;99.90;;;;;;4990384;28;20131;-91
2022/06/29 11:53:47;;;;;;;7.22;4.43;;;26.10;99.90;;;;;;4977676;28;20506;-91
2022/06/29 11:56:14;;;;;;;8.82;4.07;;;26.10;99.90;;;;;;4998991;28;20054;-94
2022/06/29 11:58:43;;;;;;;7.28;3.90;;;26.20;99.90;;;;;;4991543;28;20037;-88
2022/06/29 12:01:13;;;;;;;7.25;4.03;;;26.30;99.90;;;;;;4988552;28;20144;-92
2022/06/29 12:03:47;;;;;;;6.72;4.40;;;26.40;99.90;;;;;;4991905;28;20354;-93
2022/06/29 12:06:14;;;;;;;5.85;3.60;;;26.30;99.90;;;;;;5012419;28;20049;-93
2022/06/29 12:08:40;;;;;;;5.82;3.72;;;26.30;99.90;;;;;;4996415;28;20630;-93
2022/06/29 12:11:06;;;;;;;7.43;4.50;;;26.20;99.90;;;;;;4990101;28;20168;-91
2022/06/29 12:13:32;;;;;;;6.68;4.10;;;26.10;99.90;;;;;;4989306;28;20589;-91
2022/06/29 12:15:57;;;;;;;8.00;4.65;;;26.10;99.90;;;;;;4997995;28;20454;-91
2022/06/29 12:18:23;;;;;;;7.15;4.38;;;26.10;99.90;;;;;;4985228;28;20518;-91
2022/06/29 12:20:49;;;;;;;6.95;4.22;;;26.00;99.90;;;;;;4978168;28;20041;-92
2022/06/29 12:23:15;;;;;;;7.88;4.38;;;26.00;99.90;;;;;;5004262;28;20101;-92
2022/06/29 12:25:41;;;;;;;7.82;4.85;;;25.90;99.90;;;;;;5015009;28;20049;-88
2022/06/29 12:28:07;;;;;;;7.75;4.38;;;25.90;99.90;;;;;;5012231;28;20095;-91
2022/06/29 12:30:32;;;;;;;13.93;5.57;;;25.90;99.90;;;;;;4985718;28;20057;-92
2022/06/29 12:32:58;;;;;;;14.02;5.70;;;25.90;99.90;;;;;;4988537;28;20049;-90
2022/06/29 12:35:24;;;;;;;8.40;4.72;;;25.90;99.90;;;;;;5026627;28;20056;-92
2022/06/29 12:37:53;;;;;;;8.10;4.88;;;25.80;99.90;;;;;;4985975;28;20135;-92
2022/06/29 12:40:19;;;;;;;9.68;5.43;;;25.80;99.90;;;;;;4981291;28;20084;-93
2022/06/29 12:42:44;;;;;;;8.13;4.97;;;25.80;99.90;;;;;;5014681;28;20041;-91
2022/06/29 12:45:10;;;;;;;7.78;4.80;;;25.80;99.90;;;;;;5028869;28;20545;-90
2022/06/29 12:47:36;;;;;;;9.05;5.65;;;25.80;99.90;;;;;;4995998;28;20096;-93
2022/06/29 12:50:02;;;;;;;9.57;5.50;;;26.00;99.90;;;;;;4993775;28;20045;-88
2022/06/29 12:52:28;;;;;;;9.30;5.72;;;26.10;99.90;;;;;;5009113;28;20466;-92
2022/06/29 12:54:54;;;;;;;6.88;4.18;;;26.20;99.90;;;;;;4983699;28;20049;-92
2022/06/29 12:57:19;;;;;;;7.93;4.35;;;26.30;99.90;;;;;;4994471;28;20765;-91
2022/06/29 12:59:45;;;;;;;8.55;4.30;;;26.30;99.90;;;;;;5000833;28;20041;-93
2022/06/29 13:02:12;;;;;;;6.72;4.30;;;26.30;99.90;;;;;;5004190;28;20049;-92
2022/06/29 13:04:38;;;;;;;7.50;4.57;;;26.40;99.90;;;;;;5012495;28;20041;-87
2022/06/29 13:07:03;;;;;;;9.57;4.55;;;26.40;99.90;;;;;;4990187;28;20128;-92
2022/06/29 13:09:29;;;;;;;7.15;4.28;;;26.40;99.90;;;;;;5012305;28;20156;-93
2022/06/29 13:11:55;;;;;;;8.52;4.57;;;26.30;99.90;;;;;;5015547;28;20512;-92